sim
Sign-in with your pilot id or email,
or register
Callsign
Passwort

Schedule Details

Flight Number: DLH480 (1)
Departure: Munich Airport (EDDM) at 10:45
Arrival: Denver International Airport (KDEN) at 21:35
Route: Lufthansa Passenger Schedule. Enter filed route here before submitting Pirep.

Weather Information
Getting current METAR information for EDDM 230920Z 26009KT 6000 SHRA SCT012 FEW015CB BKN020 15/14 Q1011 TEMPO 4000
Getting current METAR information for KDEN 230853Z 25007KT 10SM FEW140 SCT220 14/03 A3014 RMK AO2 SLP127 T01440033 55001

Schedule Frequency

Route Map